createdAt,value
2019-01-17T00:01:40.787Z,9.90
2019-01-17T00:04:14.723Z,4.00
2019-01-17T00:06:43.690Z,3.00
2019-01-17T00:09:12.192Z,2.63
2019-01-17T00:11:40.392Z,3.23
2019-01-17T00:14:08.935Z,1.57
2019-01-17T00:16:42.803Z,2.43
2019-01-17T00:19:28.821Z,1.50
2019-01-17T00:22:13.391Z,1.50
2019-01-17T00:24:53.654Z,2.20
2019-01-17T00:27:38.344Z,2.73
2019-01-17T00:30:14.227Z,3.13
2019-01-17T00:32:48.081Z,4.10
2019-01-17T00:35:32.613Z,3.90
2019-01-17T00:38:03.454Z,1.47
2019-01-17T00:40:49.762Z,3.40
2019-01-17T00:43:29.794Z,4.63
2019-01-17T00:46:14.611Z,1.73
2019-01-17T00:48:59.332Z,1.97
2019-01-17T00:51:44.076Z,5.00
2019-01-17T00:54:12.333Z,2.37
2019-01-17T00:56:53.438Z,3.53
2019-01-17T00:59:24.543Z,1.87
2019-01-17T01:01:55.751Z,4.10
2019-01-17T01:04:35.792Z,1.60
2019-01-17T01:07:20.850Z,2.20
2019-01-17T01:10:04.134Z,8.63
2019-01-17T01:12:36.670Z,2.93
2019-01-17T01:15:26.845Z,2.40
2019-01-17T01:17:55.077Z,2.07
2019-01-17T01:20:23.559Z,4.23
2019-01-17T01:22:57.816Z,3.13
2019-01-17T01:25:42.841Z,7.40
2019-01-17T01:28:12.039Z,1.73
2019-01-17T01:30:46.551Z,2.60
2019-01-17T01:33:26.489Z,1.73
2019-01-17T01:35:54.730Z,3.10
2019-01-17T01:38:22.952Z,4.90
2019-01-17T01:40:53.923Z,5.43
2019-01-17T01:43:22.503Z,4.50
2019-01-17T01:45:53.666Z,2.00
2019-01-17T01:48:21.927Z,1.80
2019-01-17T01:50:50.498Z,5.60
2019-01-17T01:53:17.099Z,3.27
2019-01-17T01:55:43.397Z,3.53
2019-01-17T01:58:09.728Z,3.10
2019-01-17T02:00:36.078Z,2.13
2019-01-17T02:03:02.757Z,5.90
2019-01-17T02:05:29.088Z,5.33
2019-01-17T02:07:55.404Z,3.70
2019-01-17T02:10:22.204Z,5.47
2019-01-17T02:12:48.582Z,3.03
2019-01-17T02:15:14.899Z,6.43
2019-01-17T02:17:41.336Z,9.83
2019-01-17T02:20:09.658Z,3.67
2019-01-17T02:22:36.231Z,6.37
2019-01-17T02:25:07.198Z,6.97
2019-01-17T02:27:33.770Z,5.63
2019-01-17T02:30:00.199Z,7.50
2019-01-17T02:32:26.517Z,4.57
2019-01-17T02:34:53.116Z,7.83
2019-01-17T02:37:19.453Z,11.43
2019-01-17T02:39:46.022Z,7.50
2019-01-17T02:42:12.363Z,6.67
2019-01-17T02:44:39.244Z,8.43
2019-01-17T02:47:05.947Z,9.60
2019-01-17T02:49:32.276Z,6.40
2019-01-17T02:51:58.601Z,6.20
2019-01-17T02:54:24.891Z,10.40
2019-01-17T02:56:51.208Z,10.83
2019-01-17T02:59:17.542Z,10.70
2019-01-17T03:01:44.136Z,10.53
2019-01-17T03:04:10.498Z,5.93
2019-01-17T03:06:37.069Z,11.50
2019-01-17T03:09:06.029Z,8.67
2019-01-17T03:11:32.635Z,4.97
2019-01-17T03:13:58.993Z,7.50
2019-01-17T03:16:25.319Z,5.53
2019-01-17T03:18:51.683Z,5.00
2019-01-17T03:21:18.046Z,6.80
2019-01-17T03:23:44.667Z,5.90
2019-01-17T03:26:11.290Z,7.27
2019-01-17T03:28:37.614Z,8.73
2019-01-17T03:31:03.980Z,7.40
2019-01-17T03:33:30.608Z,6.60
2019-01-17T03:35:56.991Z,7.80
2019-01-17T03:38:23.560Z,7.47
2019-01-17T03:40:49.887Z,6.77
2019-01-17T03:43:16.223Z,7.53
2019-01-17T03:45:42.805Z,7.17
2019-01-17T03:48:09.104Z,9.00
2019-01-17T03:50:35.694Z,7.07
2019-01-17T03:53:02.006Z,12.30
2019-01-17T03:55:28.586Z,9.47
2019-01-17T03:57:54.923Z,6.30
2019-01-17T04:00:21.223Z,6.80
2019-01-17T04:02:47.676Z,11.87
2019-01-17T04:05:13.991Z,7.93
2019-01-17T04:07:40.331Z,8.03
2019-01-17T04:10:11.356Z,6.23
2019-01-17T04:12:37.697Z,7.60
2019-01-17T04:15:07.429Z,8.80
2019-01-17T04:17:34.038Z,9.57
2019-01-17T04:20:00.410Z,10.43
2019-01-17T04:22:26.705Z,7.10
2019-01-17T04:24:57.295Z,9.17
2019-01-17T04:27:21.548Z,8.27
2019-01-17T04:29:47.936Z,6.23
2019-01-17T04:32:14.228Z,5.90
2019-01-17T04:34:40.554Z,8.50
2019-01-17T04:37:06.897Z,7.20
2019-01-17T04:39:33.365Z,9.50
2019-01-17T04:41:59.829Z,6.43
2019-01-17T04:44:26.129Z,10.90
2019-01-17T04:46:52.831Z,7.50
2019-01-17T04:49:19.237Z,8.27
2019-01-17T04:51:45.577Z,12.73
2019-01-17T04:54:11.903Z,7.27
2019-01-17T04:56:38.293Z,8.17
2019-01-17T04:59:04.898Z,6.07
2019-01-17T05:01:31.305Z,4.80
2019-01-17T05:03:57.930Z,8.57
2019-01-17T05:06:24.269Z,5.80
2019-01-17T05:08:50.959Z,7.13
2019-01-17T05:11:17.430Z,10.80
2019-01-17T05:13:43.980Z,8.37
2019-01-17T05:16:10.320Z,10.93
2019-01-17T05:18:36.684Z,7.17
2019-01-17T05:21:03.129Z,5.67
2019-01-17T05:23:29.447Z,6.07
2019-01-17T05:25:56.046Z,8.93
2019-01-17T05:28:22.472Z,8.23
2019-01-17T05:30:48.855Z,10.37
2019-01-17T05:33:15.164Z,6.57
2019-01-17T05:35:41.769Z,9.03
2019-01-17T05:38:08.089Z,8.20
2019-01-17T05:40:34.669Z,8.10
2019-01-17T05:43:00.972Z,8.93
2019-01-17T05:45:27.603Z,7.47
2019-01-17T05:47:54.162Z,8.70
2019-01-17T05:50:20.776Z,11.03
2019-01-17T05:52:47.144Z,11.47
2019-01-17T05:55:19.837Z,10.13
2019-01-17T05:57:42.035Z,5.90
2019-01-17T06:00:15.731Z,10.47
2019-01-17T06:02:42.312Z,5.63
2019-01-17T06:05:09.078Z,9.97
2019-01-17T06:07:35.434Z,9.00
2019-01-17T06:10:02.748Z,6.40
2019-01-17T06:12:29.044Z,11.10
2019-01-17T06:14:55.651Z,7.37
2019-01-17T06:17:22.036Z,8.57
2019-01-17T06:19:48.407Z,6.90
2019-01-17T06:22:14.736Z,5.43
2019-01-17T06:24:41.071Z,6.10
2019-01-17T06:27:07.417Z,6.27
2019-01-17T06:29:33.766Z,6.10
2019-01-17T06:32:00.179Z,7.00
2019-01-17T06:34:26.809Z,8.60
2019-01-17T06:36:53.413Z,5.27
2019-01-17T06:39:20.071Z,6.53
2019-01-17T06:41:46.418Z,4.70
2019-01-17T06:44:12.763Z,5.20
2019-01-17T06:46:39.361Z,6.50
2019-01-17T06:49:05.722Z,4.60
2019-01-17T06:51:32.088Z,4.00
2019-01-17T06:53:58.446Z,3.40
2019-01-17T06:56:25.094Z,7.03
2019-01-17T06:58:51.423Z,3.57
2019-01-17T07:01:17.734Z,2.90
2019-01-17T07:03:44.343Z,4.73
2019-01-17T07:06:10.667Z,5.90
2019-01-17T07:08:37.312Z,4.53
2019-01-17T07:11:03.633Z,3.57
2019-01-17T07:13:29.962Z,2.97
2019-01-17T07:15:56.519Z,3.53
2019-01-17T07:18:24.323Z,3.60
2019-01-17T07:20:50.763Z,4.20
2019-01-17T07:23:17.393Z,3.03
2019-01-17T07:25:43.983Z,5.20
2019-01-17T07:28:10.568Z,3.70
2019-01-17T07:30:37.200Z,3.00
2019-01-17T07:33:03.708Z,2.80
2019-01-17T07:35:30.425Z,4.20
2019-01-17T07:37:57.059Z,2.80
2019-01-17T07:40:23.475Z,4.10
2019-01-17T07:42:49.815Z,3.80
2019-01-17T07:45:23.762Z,3.40
2019-01-17T07:47:50.425Z,3.30
2019-01-17T07:50:16.873Z,2.47
2019-01-17T07:52:43.568Z,3.10
2019-01-17T07:55:10.243Z,2.27
2019-01-17T07:57:36.680Z,4.00
2019-01-17T08:00:14.933Z,3.40
2019-01-17T08:02:41.301Z,2.47
2019-01-17T08:05:08.026Z,4.10
2019-01-17T08:07:34.738Z,3.00
2019-01-17T08:10:01.275Z,3.73
2019-01-17T08:12:27.592Z,3.43
2019-01-17T08:14:53.935Z,3.00
2019-01-17T08:17:20.222Z,3.13
2019-01-17T08:19:46.603Z,2.90
2019-01-17T08:22:12.927Z,2.60
2019-01-17T08:24:39.303Z,4.60
2019-01-17T08:27:05.596Z,4.40
2019-01-17T08:29:32.153Z,4.97
2019-01-17T08:32:02.166Z,3.53
2019-01-17T08:34:28.592Z,6.33
2019-01-17T08:36:55.224Z,5.00
2019-01-17T08:39:21.630Z,3.47
2019-01-17T08:41:47.963Z,6.80
2019-01-17T08:44:14.557Z,4.37
2019-01-17T08:46:41.957Z,3.13
2019-01-17T08:49:08.374Z,3.30
2019-01-17T08:51:35.220Z,4.27
2019-01-17T08:54:01.560Z,3.17
2019-01-17T08:56:28.246Z,8.20
2019-01-17T08:58:55.011Z,2.60
2019-01-17T09:01:21.335Z,3.57
2019-01-17T09:03:47.803Z,5.03
2019-01-17T09:06:14.136Z,7.13
2019-01-17T09:08:41.049Z,2.77
2019-01-17T09:11:07.847Z,3.40
2019-01-17T09:13:34.778Z,2.83
2019-01-17T09:16:01.472Z,2.17
2019-01-17T09:18:28.412Z,1.97
2019-01-17T09:20:55.176Z,2.40
2019-01-17T09:23:22.507Z,2.47
2019-01-17T09:25:49.139Z,1.87
2019-01-17T09:28:15.737Z,3.40
2019-01-17T09:30:42.059Z,2.37
2019-01-17T09:33:08.360Z,1.87
2019-01-17T09:35:34.961Z,2.20
2019-01-17T09:38:01.561Z,3.70
2019-01-17T09:40:27.920Z,1.87
2019-01-17T09:42:54.224Z,4.50
2019-01-17T09:45:20.566Z,2.27
2019-01-17T09:47:47.268Z,3.90
2019-01-17T09:50:20.279Z,2.00
2019-01-17T09:52:46.747Z,2.60
2019-01-17T09:55:13.268Z,2.47
2019-01-17T09:57:39.987Z,4.37
2019-01-17T10:00:20.648Z,3.20
2019-01-17T10:02:47.334Z,4.60
2019-01-17T10:05:13.927Z,1.67
2019-01-17T10:07:40.506Z,1.53
2019-01-17T10:10:16.986Z,1.83
2019-01-17T10:12:44.370Z,1.60
2019-01-17T10:15:22.081Z,3.00
2019-01-17T10:18:23.867Z,15.50
2019-01-17T10:21:04.274Z,1.53
2019-01-17T10:23:59.660Z,1.20
2019-01-17T10:26:55.287Z,1.20
2019-01-17T10:29:49.871Z,1.50
2019-01-17T10:32:51.641Z,0.80
2019-01-17T10:35:44.991Z,1.37
2019-01-17T10:38:42.879Z,1.10
2019-01-17T10:41:27.307Z,1.13
2019-01-17T10:44:11.391Z,2.10
2019-01-17T10:47:01.322Z,1.13
2019-01-17T10:49:53.675Z,0.85
2019-01-17T10:53:00.612Z,2.10
2019-01-17T10:55:51.055Z,2.03
2019-01-17T10:58:32.056Z,1.00
2019-01-17T11:01:18.981Z,1.10
2019-01-17T11:04:08.790Z,1.10
2019-01-17T11:07:04.610Z,1.47
2019-01-17T11:10:09.858Z,0.90
2019-01-17T11:13:19.111Z,1.60
2019-01-17T11:16:27.587Z,0.80
2019-01-17T11:19:26.174Z,0.90
2019-01-17T11:22:07.857Z,1.20
2019-01-17T11:25:04.300Z,1.27
2019-01-17T11:27:48.103Z,1.30
2019-01-17T11:30:20.428Z,1.73
2019-01-17T11:32:56.423Z,0.80
2019-01-17T11:36:02.477Z,0.90
2019-01-17T11:38:43.556Z,1.03
2019-01-17T11:41:24.321Z,1.10
2019-01-17T11:44:32.492Z,0.93
2019-01-17T11:47:36.373Z,0.70
2019-01-17T11:50:28.307Z,0.90
2019-01-17T11:53:03.333Z,0.80
2019-01-17T11:55:41.171Z,2.20
2019-01-17T11:58:14.196Z,3.20
2019-01-17T12:01:14.310Z,2.47
2019-01-17T12:04:03.792Z,0.67
2019-01-17T12:06:30.134Z,1.10
2019-01-17T12:08:56.714Z,1.70
2019-01-17T12:11:23.033Z,2.63
2019-01-17T12:13:49.366Z,0.93
2019-01-17T12:16:15.965Z,1.13
2019-01-17T12:18:42.311Z,0.90
2019-01-17T12:21:08.654Z,0.97
2019-01-17T12:23:36.056Z,0.70
2019-01-17T12:26:02.415Z,0.70
2019-01-17T12:28:28.976Z,0.80
2019-01-17T12:30:55.312Z,1.23
2019-01-17T12:33:21.615Z,0.70
2019-01-17T12:35:48.190Z,1.67
2019-01-17T12:38:14.520Z,0.80
2019-01-17T12:40:41.155Z,0.70
2019-01-17T12:43:07.469Z,0.70
2019-01-17T12:45:33.771Z,2.50
2019-01-17T12:48:00.429Z,0.70
2019-01-17T12:50:26.739Z,0.87
2019-01-17T12:52:53.097Z,1.27
2019-01-17T12:55:19.682Z,0.97
2019-01-17T12:57:46.305Z,0.83
2019-01-17T13:00:16.469Z,1.57
2019-01-17T13:02:42.806Z,0.80
2019-01-17T13:05:09.376Z,0.70
2019-01-17T13:07:35.925Z,0.80
2019-01-17T13:10:09.944Z,1.23
2019-01-17T13:12:36.344Z,0.70
2019-01-17T13:15:06.775Z,1.23
2019-01-17T13:17:33.377Z,0.90
2019-01-17T13:19:59.949Z,1.03
2019-01-17T13:22:26.291Z,0.80
2019-01-17T13:24:52.739Z,0.93
2019-01-17T13:27:19.353Z,0.70
2019-01-17T13:29:45.957Z,0.80
2019-01-17T13:32:12.573Z,0.93
2019-01-17T13:34:38.901Z,1.10
2019-01-17T13:37:05.226Z,0.80
2019-01-17T13:39:31.595Z,1.20
2019-01-17T13:41:58.954Z,0.70
2019-01-17T13:44:25.649Z,0.97
2019-01-17T13:46:52.061Z,1.87
2019-01-17T13:49:18.432Z,0.73
2019-01-17T13:51:44.855Z,0.70
2019-01-17T13:54:11.204Z,0.63
2019-01-17T13:56:37.777Z,0.60
2019-01-17T13:59:04.210Z,1.00
2019-01-17T14:01:30.522Z,0.70
2019-01-17T14:03:56.835Z,0.97
2019-01-17T14:06:23.442Z,0.90
2019-01-17T14:08:49.805Z,0.80
2019-01-17T14:11:16.392Z,0.93
2019-01-17T14:13:42.697Z,0.97
2019-01-17T14:16:09.275Z,0.67
2019-01-17T14:18:35.667Z,0.73
2019-01-17T14:21:02.308Z,0.60
2019-01-17T14:23:30.967Z,1.00
2019-01-17T14:25:57.533Z,0.93
2019-01-17T14:28:23.941Z,0.80
2019-01-17T14:30:50.291Z,0.70
2019-01-17T14:33:21.032Z,1.30
2019-01-17T14:35:48.360Z,0.70
2019-01-17T14:38:14.847Z,0.80
2019-01-17T14:40:41.490Z,0.60
2019-01-17T14:43:11.113Z,0.90
2019-01-17T14:45:37.444Z,0.90
2019-01-17T14:48:04.458Z,0.80
2019-01-17T14:50:31.041Z,0.70
2019-01-17T14:52:57.655Z,0.83
2019-01-17T14:55:24.363Z,0.63
2019-01-17T14:57:51.096Z,0.60
2019-01-17T15:00:25.494Z,0.73
2019-01-17T15:02:52.519Z,1.00
2019-01-17T15:05:19.332Z,1.43
2019-01-17T15:07:45.622Z,0.80
2019-01-17T15:10:23.080Z,2.60
2019-01-17T15:12:49.401Z,0.80
2019-01-17T15:15:16.320Z,0.63
2019-01-17T15:17:42.625Z,0.80
2019-01-17T15:20:17.791Z,3.50
2019-01-17T15:22:46.518Z,7.20
2019-01-17T15:25:13.149Z,2.60
2019-01-17T15:27:39.473Z,1.27
2019-01-17T15:30:11.296Z,2.37
2019-01-17T15:32:38.003Z,1.83
2019-01-17T15:35:06.319Z,2.53
2019-01-17T15:37:33.654Z,1.20
2019-01-17T15:39:59.984Z,0.97
2019-01-17T15:42:26.385Z,1.93
2019-01-17T15:44:53.050Z,0.97
2019-01-17T15:47:19.371Z,0.80
2019-01-17T15:49:46.249Z,1.57
2019-01-17T15:52:13.250Z,1.10
2019-01-17T15:54:39.662Z,1.23
2019-01-17T15:57:06.277Z,0.80
2019-01-17T15:59:32.646Z,2.43
2019-01-17T16:01:59.228Z,2.33
2019-01-17T16:04:26.834Z,1.40
2019-01-17T16:06:53.493Z,1.30
2019-01-17T16:09:19.927Z,1.13
2019-01-17T16:11:46.259Z,2.20
2019-01-17T16:14:12.600Z,0.90
2019-01-17T16:16:38.938Z,1.03
2019-01-17T16:19:05.278Z,1.67
2019-01-17T16:21:31.891Z,1.00
2019-01-17T16:23:58.487Z,1.03
2019-01-17T16:26:25.161Z,1.77
2019-01-17T16:28:51.822Z,1.00
2019-01-17T16:31:18.189Z,1.33
2019-01-17T16:33:44.793Z,1.20
2019-01-17T16:36:11.153Z,1.97
2019-01-17T16:38:37.449Z,2.30
2019-01-17T16:41:04.083Z,0.90
2019-01-17T16:43:30.380Z,1.33
2019-01-17T16:45:56.833Z,2.03
2019-01-17T16:48:23.497Z,1.23
2019-01-17T16:50:50.113Z,5.33
2019-01-17T16:53:17.191Z,5.20
2019-01-17T16:55:43.563Z,1.70
2019-01-17T16:58:09.937Z,1.20
2019-01-17T17:00:38.618Z,1.27
2019-01-17T17:03:05.112Z,1.40
2019-01-17T17:05:31.703Z,2.40
2019-01-17T17:07:58.452Z,0.80
2019-01-17T17:10:25.569Z,0.80
2019-01-17T17:12:52.317Z,1.07
2019-01-17T17:15:19.120Z,2.17
2019-01-17T17:17:45.705Z,0.83
2019-01-17T17:20:20.407Z,1.00
2019-01-17T17:22:46.898Z,0.90
2019-01-17T17:25:13.490Z,0.73
2019-01-17T17:27:39.950Z,0.80
2019-01-17T17:30:15.149Z,0.60
2019-01-17T17:32:41.515Z,4.83
2019-01-17T17:35:08.064Z,1.07
2019-01-17T17:37:34.458Z,2.37
2019-01-17T17:40:01.024Z,1.37
2019-01-17T17:42:27.739Z,0.90
2019-01-17T17:44:55.122Z,0.97
2019-01-17T17:47:22.718Z,0.80
2019-01-17T17:49:49.282Z,3.70
2019-01-17T17:52:15.822Z,0.67
2019-01-17T17:54:42.177Z,3.37
2019-01-17T17:57:08.777Z,0.70
2019-01-17T17:59:35.129Z,2.70
2019-01-17T18:02:02.313Z,0.80
2019-01-17T18:04:28.908Z,1.30
2019-01-17T18:06:55.671Z,2.83
2019-01-17T18:09:22.338Z,2.40
2019-01-17T18:11:48.822Z,1.83
2019-01-17T18:14:15.207Z,1.13
2019-01-17T18:16:46.276Z,0.90
2019-01-17T18:19:12.611Z,0.50
2019-01-17T18:21:39.342Z,1.17
2019-01-17T18:24:05.653Z,0.80
2019-01-17T18:26:32.012Z,0.73
2019-01-17T18:28:58.621Z,0.80
2019-01-17T18:31:24.974Z,2.23
2019-01-17T18:33:51.288Z,0.97
2019-01-17T18:36:17.920Z,0.80
2019-01-17T18:38:44.482Z,1.00
2019-01-17T18:41:15.146Z,0.77
2019-01-17T18:43:42.715Z,1.03
2019-01-17T18:46:09.058Z,0.50
2019-01-17T18:48:35.710Z,0.50
2019-01-17T18:51:02.391Z,0.50
2019-01-17T18:53:28.714Z,0.50
2019-01-17T18:55:55.054Z,2.00
2019-01-17T18:58:21.355Z,0.77
2019-01-17T19:00:47.751Z,1.87
2019-01-17T19:03:14.200Z,0.60
2019-01-17T19:05:40.677Z,0.80
2019-01-17T19:08:07.274Z,1.10
2019-01-17T19:10:33.924Z,1.60
2019-01-17T19:13:00.267Z,1.40
2019-01-17T19:15:29.819Z,0.87
2019-01-17T19:17:56.366Z,1.70
2019-01-17T19:20:22.968Z,0.93
2019-01-17T19:22:49.310Z,1.63
2019-01-17T19:25:16.794Z,0.60
2019-01-17T19:27:43.219Z,0.70
2019-01-17T19:30:20.017Z,0.83
2019-01-17T19:32:46.880Z,2.20
2019-01-17T19:35:13.664Z,0.90
2019-01-17T19:37:41.524Z,0.60
2019-01-17T19:40:21.052Z,1.10
2019-01-17T19:42:48.121Z,0.50
2019-01-17T19:45:15.373Z,0.67
2019-01-17T19:47:41.991Z,0.60
2019-01-17T19:50:24.068Z,0.80
2019-01-17T19:52:50.446Z,0.80
2019-01-17T19:55:16.899Z,1.00
2019-01-17T19:57:43.227Z,0.70
2019-01-17T20:00:15.269Z,0.67
2019-01-17T20:02:42.190Z,0.80
2019-01-17T20:05:12.123Z,1.43
2019-01-17T20:07:39.598Z,0.80
2019-01-17T20:10:14.970Z,1.00
2019-01-17T20:12:41.644Z,1.47
2019-01-17T20:15:09.272Z,1.13
2019-01-17T20:17:35.690Z,1.30
2019-01-17T20:20:09.003Z,1.00
2019-01-17T20:22:35.609Z,1.00
2019-01-17T20:25:02.868Z,1.37
2019-01-17T20:27:29.164Z,1.20
2019-01-17T20:29:55.767Z,1.30
2019-01-17T20:32:22.376Z,1.40
2019-01-17T20:34:48.726Z,1.27
2019-01-17T20:37:15.125Z,1.53
2019-01-17T20:39:41.452Z,1.30
2019-01-17T20:42:07.779Z,1.60
2019-01-17T20:44:34.219Z,1.80
2019-01-17T20:47:00.634Z,1.83
2019-01-17T20:49:27.215Z,4.63
2019-01-17T20:51:53.555Z,1.97
2019-01-17T20:54:19.885Z,2.23
2019-01-17T20:56:46.229Z,1.77
2019-01-17T20:59:12.871Z,2.00
2019-01-17T21:01:47.587Z,2.93
2019-01-17T21:04:14.005Z,3.77
2019-01-17T21:06:40.348Z,2.93
2019-01-17T21:09:09.390Z,3.20
2019-01-17T21:11:35.794Z,2.10
2019-01-17T21:14:02.725Z,2.60
2019-01-17T21:16:29.323Z,2.03
2019-01-17T21:18:55.630Z,4.43
2019-01-17T21:21:21.976Z,2.37
2019-01-17T21:23:48.328Z,2.50
2019-01-17T21:26:14.924Z,2.63
2019-01-17T21:28:41.229Z,2.20
2019-01-17T21:31:07.565Z,3.13
2019-01-17T21:33:33.915Z,2.10
2019-01-17T21:36:00.246Z,2.90
2019-01-17T21:38:26.863Z,3.43
2019-01-17T21:40:53.469Z,3.20
2019-01-17T21:43:19.913Z,3.50
2019-01-17T21:45:46.681Z,3.27
2019-01-17T21:48:13.293Z,4.00
2019-01-17T21:50:39.978Z,3.20
2019-01-17T21:53:06.589Z,3.90
2019-01-17T21:55:34.028Z,4.50
2019-01-17T21:58:00.846Z,4.63
2019-01-17T22:00:28.476Z,3.57
2019-01-17T22:02:54.843Z,3.80
2019-01-17T22:05:21.361Z,2.97
2019-01-17T22:07:48.083Z,2.83
2019-01-17T22:10:16.803Z,3.30
2019-01-17T22:12:43.346Z,3.37
2019-01-17T22:15:17.077Z,2.90
2019-01-17T22:17:43.404Z,3.07
2019-01-17T22:20:11.320Z,2.30
2019-01-17T22:22:37.911Z,2.80
2019-01-17T22:25:09.340Z,2.73
2019-01-17T22:27:35.939Z,2.73
2019-01-17T22:30:08.695Z,2.53
2019-01-17T22:32:35.127Z,2.13
2019-01-17T22:35:01.710Z,2.63
2019-01-17T22:37:28.052Z,2.63
2019-01-17T22:39:54.473Z,2.07
2019-01-17T22:42:20.833Z,2.40
2019-01-17T22:44:47.584Z,2.53
2019-01-17T22:47:14.230Z,6.40
2019-01-17T22:49:40.588Z,1.90
2019-01-17T22:52:06.882Z,2.73
2019-01-17T22:54:33.492Z,2.10
2019-01-17T22:57:00.059Z,6.73
2019-01-17T22:59:26.426Z,2.10
2019-01-17T23:01:52.933Z,2.27
2019-01-17T23:04:19.425Z,5.80
2019-01-17T23:06:46.001Z,4.60
2019-01-17T23:09:13.420Z,2.23
2019-01-17T23:11:39.797Z,1.60
2019-01-17T23:14:08.100Z,3.40
2019-01-17T23:16:34.478Z,4.13
2019-01-17T23:19:00.893Z,2.50
2019-01-17T23:21:27.182Z,2.60
2019-01-17T23:23:53.538Z,3.30
2019-01-17T23:26:19.853Z,4.90
2019-01-17T23:28:46.176Z,2.97
2019-01-17T23:31:12.767Z,1.30
2019-01-17T23:33:39.363Z,2.03
2019-01-17T23:36:05.946Z,1.10
2019-01-17T23:38:32.548Z,1.63
2019-01-17T23:40:59.148Z,3.43
2019-01-17T23:43:25.843Z,2.50
2019-01-17T23:45:52.431Z,8.73
2019-01-17T23:48:18.748Z,1.07
2019-01-17T23:50:45.364Z,3.20
2019-01-17T23:53:11.709Z,1.77
2019-01-17T23:55:39.404Z,5.37
2019-01-17T23:58:05.936Z,2.33
